createdAt,value
2017-02-14T00:00:45.345Z,1022.71
2017-02-14T00:01:56.049Z,1022.62
2017-02-14T00:03:06.364Z,1022.66
2017-02-14T00:04:16.672Z,1022.67
2017-02-14T00:05:27.347Z,1022.68
2017-02-14T00:06:37.914Z,1022.62
2017-02-14T00:07:48.238Z,1022.61
2017-02-14T00:08:58.182Z,1022.56
2017-02-14T00:10:08.489Z,1022.52
2017-02-14T00:11:19.158Z,1022.56
2017-02-14T00:12:29.737Z,1022.54
2017-02-14T00:13:40.087Z,1022.6
2017-02-14T00:14:50.374Z,1022.66
2017-02-14T00:16:01.078Z,1022.61
2017-02-14T00:17:11.748Z,1022.66
2017-02-14T00:18:22.671Z,1022.66
2017-02-14T00:19:32.606Z,1022.61
2017-02-14T00:20:42.911Z,1022.61
2017-02-14T00:21:53.611Z,1022.6
2017-02-14T00:23:04.286Z,1022.62
2017-02-14T00:24:14.828Z,1022.63
2017-02-14T00:25:25.528Z,1022.68
2017-02-14T00:26:35.442Z,1022.65
2017-02-14T00:27:46.114Z,1022.54
2017-02-14T00:28:56.426Z,1022.47
2017-02-14T00:30:07.343Z,1022.34
2017-02-14T00:31:17.280Z,1022.29
2017-02-14T00:32:27.981Z,1022.33
2017-02-14T00:33:38.284Z,1022.36
2017-02-14T00:34:48.180Z,1022.46
2017-02-14T00:35:59.095Z,1022.45
2017-02-14T00:37:09.411Z,1022.53
2017-02-14T00:38:19.319Z,1022.57
2017-02-14T00:39:29.587Z,1022.59
2017-02-14T00:40:40.264Z,1022.56
2017-02-14T00:41:51.278Z,1022.56
2017-02-14T00:43:01.600Z,1022.55
2017-02-14T00:44:12.287Z,1022.45
2017-02-14T00:45:23.010Z,1022.42
2017-02-14T00:46:32.902Z,1022.43
2017-02-14T00:47:43.466Z,1022.45
2017-02-14T00:48:53.368Z,1022.45
2017-02-14T00:50:04.110Z,1022.48
2017-02-14T00:51:14.809Z,1022.51
2017-02-14T00:52:25.106Z,1022.52
2017-02-14T00:54:43.884Z,1022.5
2017-02-14T00:55:54.556Z,1022.54
2017-02-14T00:57:04.460Z,1022.57
2017-02-14T00:58:14.372Z,1022.49
2017-02-14T00:59:23.886Z,1022.51
2017-02-14T01:00:34.424Z,1022.53
2017-02-14T01:01:45.133Z,1022.54
2017-02-14T01:02:55.844Z,1022.49
2017-02-14T01:04:06.148Z,1022.48
2017-02-14T01:05:16.827Z,1022.46
2017-02-14T01:06:27.507Z,1022.47
2017-02-14T01:07:38.216Z,1022.49
2017-02-14T01:08:48.148Z,1022.48
2017-02-14T01:09:58.476Z,1022.46
2017-02-14T01:11:08.460Z,1022.46
2017-02-14T01:12:19.127Z,1022.47
2017-02-14T01:13:29.428Z,1022.5
2017-02-14T01:14:40.124Z,1022.55
2017-02-14T01:15:50.030Z,1022.56
2017-02-14T01:17:00.736Z,1022.59
2017-02-14T01:18:10.397Z,1022.65
2017-02-14T01:19:20.312Z,1022.61
2017-02-14T01:20:30.211Z,1022.59
2017-02-14T01:21:40.519Z,1022.59
2017-02-14T01:22:50.791Z,1022.58
2017-02-14T01:24:00.978Z,1022.64
2017-02-14T01:25:11.299Z,1022.66
2017-02-14T01:26:21.577Z,1022.68
2017-02-14T01:27:32.264Z,1022.62
2017-02-14T01:28:42.967Z,1022.55
2017-02-14T01:29:53.751Z,1022.52
2017-02-14T01:31:03.665Z,1022.48
2017-02-14T01:32:13.961Z,1022.49
2017-02-14T01:33:24.636Z,1022.47
2017-02-14T01:34:34.986Z,1022.49
2017-02-14T01:35:45.031Z,1022.48
2017-02-14T01:36:55.346Z,1022.46
2017-02-14T01:38:05.649Z,1022.44
2017-02-14T01:39:16.376Z,1022.52
2017-02-14T01:40:26.686Z,1022.57
2017-02-14T01:41:36.748Z,1022.6
2017-02-14T01:42:46.261Z,1022.61
2017-02-14T01:43:56.955Z,1022.55
2017-02-14T01:45:07.248Z,1022.56
2017-02-14T01:46:17.146Z,1022.61
2017-02-14T01:47:28.082Z,1022.61
2017-02-14T01:48:38.810Z,1022.64
2017-02-14T01:49:49.114Z,1022.57
2017-02-14T01:50:58.623Z,1022.56
2017-02-14T01:52:09.593Z,1022.52
2017-02-14T01:53:20.149Z,1022.5
2017-02-14T01:54:30.837Z,1022.54
2017-02-14T01:55:41.512Z,1022.45
2017-02-14T01:56:52.168Z,1022.48
2017-02-14T01:58:02.887Z,1022.45
2017-02-14T01:59:12.875Z,1022.42
2017-02-14T02:00:23.553Z,1022.44
2017-02-14T02:01:33.882Z,1022.37
2017-02-14T02:02:43.785Z,1022.35
2017-02-14T02:03:53.666Z,1022.33
2017-02-14T02:05:03.831Z,1022.32
2017-02-14T02:06:14.580Z,1022.34
2017-02-14T02:07:25.260Z,1022.33
2017-02-14T02:08:35.558Z,1022.32
2017-02-14T02:09:45.840Z,1022.36
2017-02-14T02:10:56.802Z,1022.32
2017-02-14T02:12:07.076Z,1022.28
2017-02-14T02:13:16.989Z,1022.28
2017-02-14T02:14:26.873Z,1022.28
2017-02-14T02:15:37.528Z,1022.25
2017-02-14T02:16:48.324Z,1022.32
2017-02-14T02:17:58.607Z,1022.33
2017-02-14T02:19:09.322Z,1022.32
2017-02-14T02:20:19.275Z,1022.31
2017-02-14T02:21:29.948Z,1022.31
2017-02-14T02:22:40.607Z,1022.31
2017-02-14T02:23:51.286Z,1022.28
2017-02-14T02:25:01.956Z,1022.24
2017-02-14T02:26:12.307Z,1022.25
2017-02-14T02:27:22.991Z,1022.25
2017-02-14T02:28:33.555Z,1022.27
2017-02-14T02:29:44.220Z,1022.32
2017-02-14T02:30:54.537Z,1022.29
2017-02-14T02:32:04.831Z,1022.35
2017-02-14T02:33:15.513Z,1022.25
2017-02-14T02:34:26.296Z,1022.27
2017-02-14T02:35:36.595Z,1022.15
2017-02-14T02:36:46.536Z,1022.18
2017-02-14T02:37:56.440Z,1022.17
2017-02-14T02:39:06.767Z,1022.16
2017-02-14T02:40:17.530Z,1022.16
2017-02-14T02:41:27.823Z,1022.18
2017-02-14T02:42:38.139Z,1022.16
2017-02-14T02:43:47.706Z,1022.19
2017-02-14T02:44:57.911Z,1022.22
2017-02-14T02:46:08.579Z,1022.27
2017-02-14T02:47:18.868Z,1022.22
2017-02-14T02:48:28.812Z,1022.19
2017-02-14T02:49:39.116Z,1022.2
2017-02-14T02:50:49.800Z,1022.21
2017-02-14T02:52:00.741Z,1022.2
2017-02-14T02:53:11.075Z,1022.18
2017-02-14T02:54:21.767Z,1022.2
2017-02-14T02:55:32.101Z,1022.17
2017-02-14T02:56:41.626Z,1022.14
2017-02-14T02:57:52.422Z,1022.1
2017-02-14T02:59:03.123Z,1022.11
2017-02-14T03:00:12.661Z,1022.06
2017-02-14T03:01:23.023Z,1022.04
2017-02-14T03:02:33.701Z,1022.09
2017-02-14T03:03:44.336Z,1022.07
2017-02-14T03:04:54.698Z,1022.09
2017-02-14T03:06:05.383Z,1022.07
2017-02-14T03:07:16.107Z,1022.1
2017-02-14T03:08:26.400Z,1022.13
2017-02-14T03:09:37.058Z,1022.1
2017-02-14T03:10:47.768Z,1022.11
2017-02-14T03:11:58.072Z,1022.12
2017-02-14T03:13:07.996Z,1022.15
2017-02-14T03:14:17.887Z,1022.16
2017-02-14T03:15:28.529Z,1022.17
2017-02-14T03:16:39.204Z,1022.13
2017-02-14T03:17:49.494Z,1022.2
2017-02-14T03:19:00.174Z,1022.23
2017-02-14T03:20:10.087Z,1022.16
2017-02-14T03:21:20.671Z,1022.18
2017-02-14T03:22:30.967Z,1022.19
2017-02-14T03:23:41.259Z,1022.15
2017-02-14T03:24:51.588Z,1022.17
2017-02-14T03:26:01.490Z,1022.17
2017-02-14T03:27:12.258Z,1022.13
2017-02-14T03:28:23.267Z,1022.17
2017-02-14T03:29:33.586Z,1022.12
2017-02-14T03:30:43.866Z,1022.15
2017-02-14T03:31:54.523Z,1022.13
2017-02-14T03:33:05.560Z,1022.17
2017-02-14T03:34:15.501Z,1022.13
2017-02-14T03:35:26.178Z,1022.14
2017-02-14T03:36:36.085Z,1022.07
2017-02-14T03:37:46.055Z,1022.04
2017-02-14T03:38:56.708Z,1022.03
2017-02-14T03:40:06.618Z,1022
2017-02-14T03:41:16.126Z,1022.03
2017-02-14T03:42:26.814Z,1022
2017-02-14T03:43:37.150Z,1021.97
2017-02-14T03:44:47.395Z,1022.01
2017-02-14T03:45:58.071Z,1022
2017-02-14T03:47:08.740Z,1022.03
2017-02-14T03:48:19.090Z,1022.01
2017-02-14T03:49:29.367Z,1022.03
2017-02-14T03:50:40.393Z,1021.99
2017-02-14T03:51:51.072Z,1021.93
2017-02-14T03:53:01.762Z,1021.87
2017-02-14T03:54:11.633Z,1021.85
2017-02-14T03:55:21.961Z,1021.9
2017-02-14T03:56:32.984Z,1021.89
2017-02-14T03:57:43.247Z,1021.9
2017-02-14T03:58:53.189Z,1021.83
2017-02-14T04:00:03.098Z,1021.84
2017-02-14T04:01:13.030Z,1021.88
2017-02-14T04:02:23.070Z,1021.85
2017-02-14T04:03:33.020Z,1021.84
2017-02-14T04:04:43.330Z,1021.84
2017-02-14T04:05:53.247Z,1021.91
2017-02-14T04:07:03.536Z,1021.9
2017-02-14T04:08:13.768Z,1021.93
2017-02-14T04:09:24.085Z,1021.96
2017-02-14T04:10:34.007Z,1021.99
2017-02-14T04:11:44.665Z,1022.02
2017-02-14T04:12:54.583Z,1022.03
2017-02-14T04:14:05.610Z,1022.06
2017-02-14T04:15:16.270Z,1022.06
2017-02-14T04:16:26.175Z,1022.04
2017-02-14T04:17:35.693Z,1022.05
2017-02-14T04:18:45.970Z,1022.09
2017-02-14T04:19:56.515Z,1022.1
2017-02-14T04:21:06.799Z,1022.11
2017-02-14T04:22:17.120Z,1022.15
2017-02-14T04:23:27.814Z,1022.2
2017-02-14T04:24:38.496Z,1022.16
2017-02-14T04:25:49.470Z,1022.25
2017-02-14T04:26:59.767Z,1022.2
2017-02-14T04:28:10.434Z,1022.16
2017-02-14T04:29:20.738Z,1022.17
2017-02-14T04:30:31.441Z,1022.19
2017-02-14T04:31:42.079Z,1022.18
2017-02-14T04:32:52.414Z,1022.27
2017-02-14T04:34:03.271Z,1022.2
2017-02-14T04:35:13.943Z,1022.2
2017-02-14T04:36:24.345Z,1022.2
2017-02-14T04:37:34.504Z,1022.23
2017-02-14T04:38:44.817Z,1022.25
2017-02-14T04:39:55.527Z,1022.28
2017-02-14T04:41:05.412Z,1022.28
2017-02-14T04:42:15.733Z,1022.3
2017-02-14T04:43:26.348Z,1022.32
2017-02-14T04:44:37.089Z,1022.34
2017-02-14T04:45:47.370Z,1022.33
2017-02-14T04:46:57.665Z,1022.33
2017-02-14T04:48:07.642Z,1022.39
2017-02-14T04:49:18.594Z,1022.34
2017-02-14T04:50:28.876Z,1022.33
2017-02-14T04:51:38.799Z,1022.39
2017-02-14T04:52:49.498Z,1022.4
2017-02-14T04:53:59.037Z,1022.4
2017-02-14T04:55:10.001Z,1022.47
2017-02-14T04:56:19.952Z,1022.43
2017-02-14T04:57:29.894Z,1022.45
2017-02-14T04:58:40.243Z,1022.48
2017-02-14T04:59:50.973Z,1022.5
2017-02-14T05:01:01.400Z,1022.46
2017-02-14T05:02:12.077Z,1022.47
2017-02-14T05:03:22.345Z,1022.51
2017-02-14T05:04:32.643Z,1022.49
2017-02-14T05:05:43.321Z,1022.51
2017-02-14T05:06:53.725Z,1022.51
2017-02-14T05:08:04.016Z,1022.55
2017-02-14T05:09:14.688Z,1022.57
2017-02-14T05:10:24.965Z,1022.59
2017-02-14T05:11:35.263Z,1022.54
2017-02-14T05:12:45.275Z,1022.53
2017-02-14T05:13:55.582Z,1022.51
2017-02-14T05:15:05.922Z,1022.58
2017-02-14T05:16:15.886Z,1022.61
2017-02-14T05:17:26.204Z,1022.58
2017-02-14T05:18:37.022Z,1022.6
2017-02-14T05:19:47.706Z,1022.59
2017-02-14T05:20:58.008Z,1022.6
2017-02-14T05:22:08.308Z,1022.6
2017-02-14T05:23:19.004Z,1022.62
2017-02-14T05:24:29.533Z,1022.57
2017-02-14T05:25:40.212Z,1022.61
2017-02-14T05:26:50.501Z,1022.62
2017-02-14T05:28:00.797Z,1022.68
2017-02-14T05:29:10.692Z,1022.7
2017-02-14T05:30:21.330Z,1022.67
2017-02-14T05:31:32.009Z,1022.67
2017-02-14T05:32:41.960Z,1022.64
2017-02-14T05:33:52.302Z,1022.68
2017-02-14T05:35:02.262Z,1022.7
2017-02-14T05:36:12.327Z,1022.7
2017-02-14T05:37:22.241Z,1022.68
2017-02-14T05:38:32.527Z,1022.72
2017-02-14T05:39:43.210Z,1022.76
2017-02-14T05:40:53.687Z,1022.81
2017-02-14T05:42:04.649Z,1022.8
2017-02-14T05:43:15.339Z,1022.82
2017-02-14T05:44:25.278Z,1022.85
2017-02-14T05:45:35.600Z,1022.83
2017-02-14T05:46:45.918Z,1022.86
2017-02-14T05:47:56.987Z,1022.8
2017-02-14T05:49:07.682Z,1022.86
2017-02-14T05:50:17.581Z,1022.89
2017-02-14T05:51:27.503Z,1022.95
2017-02-14T05:52:37.814Z,1022.96
2017-02-14T05:53:48.776Z,1022.93
2017-02-14T05:54:59.078Z,1022.94
2017-02-14T05:56:09.788Z,1022.91
2017-02-14T05:57:19.357Z,1022.91
2017-02-14T05:58:29.288Z,1022.9
2017-02-14T05:59:40.146Z,1022.89
2017-02-14T06:00:50.068Z,1022.9
2017-02-14T06:02:00.779Z,1022.9
2017-02-14T06:03:10.669Z,1022.9
2017-02-14T06:04:20.963Z,1022.87
2017-02-14T06:05:31.003Z,1022.94
2017-02-14T06:06:41.309Z,1022.9
2017-02-14T06:07:51.612Z,1022.92
2017-02-14T06:09:01.889Z,1022.87
2017-02-14T06:10:12.593Z,1022.92
2017-02-14T06:11:23.373Z,1022.92
2017-02-14T06:12:34.092Z,1022.94
2017-02-14T06:13:44.390Z,1023
2017-02-14T06:14:54.689Z,1023
2017-02-14T06:16:04.569Z,1022.95
2017-02-14T06:17:14.978Z,1022.94
2017-02-14T06:18:25.270Z,1022.99
2017-02-14T06:19:35.568Z,1023.02
2017-02-14T06:20:45.869Z,1023.02
2017-02-14T06:21:56.548Z,1023.05
2017-02-14T06:23:06.440Z,1023.03
2017-02-14T06:24:17.149Z,1023.07
2017-02-14T06:25:27.047Z,1023.04
2017-02-14T06:26:37.327Z,1023.1
2017-02-14T06:27:47.237Z,1023.13
2017-02-14T06:28:58.087Z,1023.14
2017-02-14T06:30:08.756Z,1023.18
2017-02-14T06:31:18.644Z,1023.18
2017-02-14T06:32:29.328Z,1023.19
2017-02-14T06:33:39.624Z,1023.19
2017-02-14T06:34:50.646Z,1023.23
2017-02-14T06:36:00.956Z,1023.23
2017-02-14T06:37:11.263Z,1023.31
2017-02-14T06:38:21.600Z,1023.26
2017-02-14T06:39:31.909Z,1023.33
2017-02-14T06:40:42.832Z,1023.33
2017-02-14T06:41:53.144Z,1023.34
2017-02-14T06:43:03.451Z,1023.36
2017-02-14T06:44:13.414Z,1023.37
2017-02-14T06:45:23.709Z,1023.38
2017-02-14T06:46:34.109Z,1023.35
2017-02-14T06:47:44.429Z,1023.36
2017-02-14T06:48:54.769Z,1023.38
2017-02-14T06:50:05.442Z,1023.38
2017-02-14T06:51:16.109Z,1023.4
2017-02-14T06:52:26.646Z,1023.4
2017-02-14T06:53:37.336Z,1023.35
2017-02-14T06:54:47.276Z,1023.4
2017-02-14T06:55:57.948Z,1023.4
2017-02-14T06:57:08.302Z,1023.42
2017-02-14T06:58:18.466Z,1023.47
2017-02-14T06:59:28.806Z,1023.44
2017-02-14T07:00:39.495Z,1023.44
2017-02-14T07:01:49.800Z,1023.5
2017-02-14T07:03:00.510Z,1023.48
2017-02-14T07:04:11.326Z,1023.53
2017-02-14T07:05:21.990Z,1023.52
2017-02-14T07:06:31.888Z,1023.52
2017-02-14T07:07:41.820Z,1023.51
2017-02-14T07:08:52.150Z,1023.55
2017-02-14T07:10:02.151Z,1023.6
2017-02-14T07:11:12.039Z,1023.6
2017-02-14T07:12:22.712Z,1023.58
2017-02-14T07:13:33.039Z,1023.68
2017-02-14T07:14:43.710Z,1023.71
2017-02-14T07:15:54.147Z,1023.7
2017-02-14T07:17:04.443Z,1023.73
2017-02-14T07:18:15.138Z,1023.7
2017-02-14T07:19:25.856Z,1023.67
2017-02-14T07:20:36.222Z,1023.7
2017-02-14T07:21:47.157Z,1023.71
2017-02-14T07:22:57.433Z,1023.7
2017-02-14T07:24:07.358Z,1023.75
2017-02-14T07:25:17.292Z,1023.76
2017-02-14T07:26:27.861Z,1023.76
2017-02-14T07:27:37.643Z,1023.78
2017-02-14T07:28:48.311Z,1023.83
2017-02-14T07:29:58.222Z,1023.82
2017-02-14T07:31:08.906Z,1023.87
2017-02-14T07:32:19.639Z,1023.87
2017-02-14T07:33:30.574Z,1023.86
2017-02-14T07:34:41.246Z,1023.83
2017-02-14T07:35:51.528Z,1023.9
2017-02-14T07:37:01.468Z,1023.88
2017-02-14T07:38:12.183Z,1023.86
2017-02-14T07:39:23.165Z,1023.9
2017-02-14T07:40:33.440Z,1023.93
2017-02-14T07:41:43.343Z,1023.92
2017-02-14T07:42:54.020Z,1023.95
2017-02-14T07:44:03.960Z,1023.92
2017-02-14T07:45:14.922Z,1023.93
2017-02-14T07:46:25.190Z,1023.96
2017-02-14T07:47:35.110Z,1024
2017-02-14T07:48:45.426Z,1024.01
2017-02-14T07:49:56.174Z,1024.05
2017-02-14T07:51:06.951Z,1024.05
2017-02-14T07:52:17.295Z,1024.11
2017-02-14T07:53:27.570Z,1024.14
2017-02-14T07:54:38.267Z,1024.15
2017-02-14T07:55:48.962Z,1024.15
2017-02-14T07:57:00.228Z,1024.16
2017-02-14T07:58:10.518Z,1024.18
2017-02-14T07:59:21.211Z,1024.19
2017-02-14T08:00:31.867Z,1024.22
2017-02-14T08:01:42.203Z,1024.27
2017-02-14T08:02:52.384Z,1024.25
2017-02-14T08:04:02.287Z,1024.23
2017-02-14T08:05:12.599Z,1024.18
2017-02-14T08:06:23.275Z,1024.21
2017-02-14T08:07:33.601Z,1024.21
2017-02-14T08:08:43.812Z,1024.23
2017-02-14T08:09:54.098Z,1024.25
2017-02-14T08:11:04.382Z,1024.25
2017-02-14T08:12:14.685Z,1024.33
2017-02-14T08:13:24.572Z,1024.32
2017-02-14T08:14:35.176Z,1024.39
2017-02-14T08:15:45.850Z,1024.38
2017-02-14T08:16:56.142Z,1024.41
2017-02-14T08:18:06.421Z,1024.47
2017-02-14T08:19:16.713Z,1024.44
2017-02-14T08:20:27.639Z,1024.39
2017-02-14T08:21:38.316Z,1024.44
2017-02-14T08:22:48.974Z,1024.44
2017-02-14T08:23:58.901Z,1024.45
2017-02-14T08:25:08.808Z,1024.44
2017-02-14T08:26:19.829Z,1024.47
2017-02-14T08:27:30.534Z,1024.44
2017-02-14T08:28:40.826Z,1024.47
2017-02-14T08:29:51.502Z,1024.45
2017-02-14T08:31:01.815Z,1024.49
2017-02-14T08:32:12.644Z,1024.5
2017-02-14T08:33:22.934Z,1024.52
2017-02-14T08:34:33.631Z,1024.53
2017-02-14T08:35:44.308Z,1024.53
2017-02-14T08:36:54.575Z,1024.53
2017-02-14T08:38:03.882Z,1024.53
2017-02-14T08:39:14.543Z,1024.54
2017-02-14T08:40:24.929Z,1024.56
2017-02-14T08:41:35.241Z,1024.55
2017-02-14T08:42:45.931Z,1024.54
2017-02-14T08:43:56.688Z,1024.56
2017-02-14T08:45:06.009Z,1024.58
2017-02-14T08:46:16.427Z,1024.6
2017-02-14T08:47:27.106Z,1024.61
2017-02-14T08:48:37.491Z,1024.63
2017-02-14T08:49:48.143Z,1024.64
2017-02-14T08:50:58.806Z,1024.65
2017-02-14T08:52:08.732Z,1024.71
2017-02-14T08:53:19.399Z,1024.74
2017-02-14T08:54:30.183Z,1024.8
2017-02-14T08:55:40.479Z,1024.73
2017-02-14T08:56:50.406Z,1024.77
2017-02-14T08:58:01.098Z,1024.78
2017-02-14T08:59:11.764Z,1024.83
2017-02-14T09:00:22.048Z,1024.83
2017-02-14T09:01:32.997Z,1024.86
2017-02-14T09:02:43.699Z,1024.85
2017-02-14T09:03:54.391Z,1024.88
2017-02-14T09:05:04.683Z,1024.9
2017-02-14T09:06:14.577Z,1024.89
2017-02-14T09:07:25.513Z,1024.91
2017-02-14T09:08:36.200Z,1024.89
2017-02-14T09:09:46.508Z,1024.9
2017-02-14T09:10:56.828Z,1025
2017-02-14T09:12:07.115Z,1024.99
2017-02-14T09:13:17.902Z,1024.92
2017-02-14T09:14:28.208Z,1024.96
2017-02-14T09:15:38.883Z,1024.99
2017-02-14T09:16:49.589Z,1024.99
2017-02-14T09:17:59.936Z,1024.92
2017-02-14T09:19:10.913Z,1025.01
2017-02-14T09:20:21.594Z,1025
2017-02-14T09:21:32.268Z,1024.98
2017-02-14T09:22:42.927Z,1025.08
2017-02-14T09:23:53.629Z,1025.05
2017-02-14T09:25:04.057Z,1025.02
2017-02-14T09:26:13.539Z,1025.05
2017-02-14T09:27:23.445Z,1025.05
2017-02-14T09:28:33.729Z,1025.08
2017-02-14T09:29:44.406Z,1025.08
2017-02-14T09:30:55.080Z,1025.1
2017-02-14T09:32:05.768Z,1025.11
2017-02-14T09:33:16.059Z,1025.13
2017-02-14T09:34:26.400Z,1025.18
2017-02-14T09:35:36.727Z,1025.22
2017-02-14T09:36:47.275Z,1025.2
2017-02-14T09:37:57.962Z,1025.28
2017-02-14T09:39:08.267Z,1025.27
2017-02-14T09:40:18.592Z,1025.2
2017-02-14T09:41:28.906Z,1025.19
2017-02-14T09:42:39.271Z,1025.2
2017-02-14T09:43:49.569Z,1025.21
2017-02-14T09:44:59.500Z,1025.18
2017-02-14T09:46:09.811Z,1025.25
2017-02-14T09:47:20.015Z,1025.31
2017-02-14T09:48:30.067Z,1025.3
2017-02-14T09:49:40.763Z,1025.28
2017-02-14T09:50:51.086Z,1025.28
2017-02-14T09:52:01.428Z,1025.26
2017-02-14T09:53:12.122Z,1025.21
2017-02-14T09:54:22.155Z,1025.25
2017-02-14T09:55:33.138Z,1025.25
2017-02-14T09:56:43.856Z,1025.29
2017-02-14T09:57:54.543Z,1025.33
2017-02-14T09:59:04.874Z,1025.31
2017-02-14T10:00:15.143Z,1025.35
2017-02-14T10:01:25.048Z,1025.31
2017-02-14T10:02:35.366Z,1025.31
2017-02-14T10:03:46.115Z,1025.3
2017-02-14T10:04:56.852Z,1025.34
2017-02-14T10:06:07.799Z,1025.31
2017-02-14T10:07:18.513Z,1025.39
2017-02-14T10:08:29.326Z,1025.38
2017-02-14T10:09:39.636Z,1025.38
2017-02-14T10:10:50.707Z,1025.37
2017-02-14T10:12:01.502Z,1025.37
2017-02-14T10:13:12.298Z,1025.39
2017-02-14T10:14:22.609Z,1025.44
2017-02-14T10:15:32.932Z,1025.42
2017-02-14T10:16:43.679Z,1025.42
2017-02-14T10:17:54.622Z,1025.39
2017-02-14T10:19:04.944Z,1025.43
2017-02-14T10:20:15.233Z,1025.46
2017-02-14T10:21:25.938Z,1025.38
2017-02-14T10:22:35.457Z,1025.37
2017-02-14T10:23:46.039Z,1025.4
2017-02-14T10:24:56.339Z,1025.33
2017-02-14T10:26:07.042Z,1025.29
2017-02-14T10:27:17.738Z,1025.32
2017-02-14T10:28:27.658Z,1025.32
2017-02-14T10:29:38.212Z,1025.32
2017-02-14T10:30:48.890Z,1025.31
2017-02-14T10:31:59.164Z,1025.3
2017-02-14T10:33:09.447Z,1025.35
2017-02-14T10:34:20.133Z,1025.29
2017-02-14T10:35:30.220Z,1025.29
2017-02-14T10:36:40.119Z,1025.26
2017-02-14T10:37:50.957Z,1025.22
2017-02-14T10:39:00.925Z,1025.26
2017-02-14T10:40:11.607Z,1025.31
2017-02-14T10:41:21.879Z,1025.29
2017-02-14T10:42:32.192Z,1025.29
2017-02-14T10:43:42.499Z,1025.3
2017-02-14T10:44:53.225Z,1025.31
2017-02-14T10:46:03.941Z,1025.32
2017-02-14T10:47:15.002Z,1025.3
2017-02-14T10:48:26.099Z,1025.31
2017-02-14T10:49:36.037Z,1025.33
2017-02-14T10:50:46.327Z,1025.3
2017-02-14T10:51:56.613Z,1025.29
2017-02-14T10:53:06.443Z,1025.25
2017-02-14T10:54:16.756Z,1025.24
2017-02-14T10:55:27.077Z,1025.2
2017-02-14T10:56:37.373Z,1025.2
2017-02-14T10:57:48.047Z,1025.12
2017-02-14T10:58:58.248Z,1025.1
2017-02-14T11:00:07.772Z,1025.05
2017-02-14T11:01:17.686Z,1025.09
2017-02-14T11:02:27.997Z,1025.07
2017-02-14T11:03:37.949Z,1025.09
2017-02-14T11:04:48.877Z,1025.1
2017-02-14T11:05:59.555Z,1025.06
2017-02-14T11:07:09.435Z,1025.17
2017-02-14T11:08:19.359Z,1025.15
2017-02-14T11:09:30.023Z,1025.12
2017-02-14T11:10:40.046Z,1025.17
2017-02-14T11:11:50.349Z,1025.22
2017-02-14T11:13:00.654Z,1025.14
2017-02-14T11:14:10.980Z,1025.16
2017-02-14T11:15:20.874Z,1025.1
2017-02-14T11:16:31.445Z,1025.1
2017-02-14T11:17:41.404Z,1025.11
2017-02-14T11:18:51.698Z,1025.07
2017-02-14T11:20:01.984Z,1025.01
2017-02-14T11:21:11.540Z,1025.01
2017-02-14T11:22:22.466Z,1025.04
2017-02-14T11:23:32.760Z,1025.07
2017-02-14T11:24:43.046Z,1025.11
2017-02-14T11:25:52.947Z,1025.05
2017-02-14T11:27:03.643Z,1025.05
2017-02-14T11:28:14.458Z,1025.11
2017-02-14T11:29:25.147Z,1025.11
2017-02-14T11:30:35.035Z,1025.11
2017-02-14T11:31:45.347Z,1025.04
2017-02-14T11:32:55.246Z,1025.02
2017-02-14T11:34:05.669Z,1025.08
2017-02-14T11:35:15.585Z,1025.02
2017-02-14T11:36:25.901Z,1025.11
2017-02-14T11:37:36.225Z,1025.1
2017-02-14T11:38:46.516Z,1025.09
2017-02-14T11:39:57.558Z,1025.09
2017-02-14T11:41:07.879Z,1025.1
2017-02-14T11:42:18.570Z,1025.11
2017-02-14T11:43:29.269Z,1025.08
2017-02-14T11:44:39.943Z,1025.03
2017-02-14T11:45:50.507Z,1025.08
2017-02-14T11:47:01.203Z,1025.04
2017-02-14T11:48:11.452Z,1025.04
2017-02-14T11:49:21.333Z,1024.97
2017-02-14T11:50:31.650Z,1025.02
2017-02-14T11:51:41.537Z,1025
2017-02-14T11:52:51.818Z,1024.98
2017-02-14T11:54:02.131Z,1024.98
2017-02-14T11:55:12.418Z,1024.97
2017-02-14T11:56:23.091Z,1024.97
2017-02-14T11:57:33.937Z,1025.02
2017-02-14T11:58:43.827Z,1024.98
2017-02-14T11:59:54.097Z,1025.03
2017-02-14T12:01:04.422Z,1025.01
2017-02-14T12:02:15.112Z,1024.97
2017-02-14T12:03:25.546Z,1025
2017-02-14T12:04:35.826Z,1025.04
2017-02-14T12:05:46.109Z,1025.01
2017-02-14T12:06:56.055Z,1025.02
2017-02-14T12:08:06.386Z,1025.02
2017-02-14T12:09:16.483Z,1025.03
2017-02-14T12:10:27.171Z,1025
2017-02-14T12:11:37.873Z,1025
2017-02-14T12:12:48.333Z,1025.01
2017-02-14T12:13:59.453Z,1025.03
2017-02-14T12:15:10.046Z,1025.02
2017-02-14T12:16:20.739Z,1025.02
2017-02-14T12:17:31.418Z,1025.04
2017-02-14T12:18:42.102Z,1025.03
2017-02-14T12:19:52.749Z,1024.98
2017-02-14T12:21:03.702Z,1025.02
2017-02-14T12:22:13.630Z,1025.01
2017-02-14T12:23:24.315Z,1024.95
2017-02-14T12:24:34.235Z,1024.93
2017-02-14T12:25:44.891Z,1024.97
2017-02-14T12:26:55.526Z,1024.98
2017-02-14T12:28:05.840Z,1024.97
2017-02-14T12:29:16.536Z,1024.94
2017-02-14T12:30:27.241Z,1024.95
2017-02-14T12:31:37.142Z,1024.89
2017-02-14T12:32:47.155Z,1024.93
2017-02-14T12:33:57.065Z,1024.92
2017-02-14T12:35:07.748Z,1024.87
2017-02-14T12:36:18.402Z,1024.93
2017-02-14T12:37:28.689Z,1024.91
2017-02-14T12:38:39.348Z,1024.9
2017-02-14T12:39:49.283Z,1024.96
2017-02-14T12:40:59.571Z,1024.93
2017-02-14T12:42:09.522Z,1024.94
2017-02-14T12:43:19.824Z,1024.94
2017-02-14T12:44:30.390Z,1024.93
2017-02-14T12:45:39.921Z,1024.93
2017-02-14T12:46:50.623Z,1024.95
2017-02-14T12:48:00.548Z,1024.93
2017-02-14T12:49:11.240Z,1024.95
2017-02-14T12:50:21.276Z,1024.96
2017-02-14T12:51:31.552Z,1024.93
2017-02-14T12:52:42.259Z,1025
2017-02-14T12:53:52.146Z,1024.96
2017-02-14T12:55:02.068Z,1024.96
2017-02-14T12:56:12.470Z,1024.97
2017-02-14T12:57:22.811Z,1024.97
2017-02-14T12:58:33.111Z,1024.95
2017-02-14T12:59:43.400Z,1024.95
2017-02-14T13:00:54.054Z,1024.95
2017-02-14T13:02:04.500Z,1025
2017-02-14T13:03:14.810Z,1024.97
2017-02-14T13:04:24.319Z,1024.97
2017-02-14T13:05:35.036Z,1024.98
2017-02-14T13:06:45.373Z,1024.98
2017-02-14T13:07:55.813Z,1024.99
2017-02-14T13:09:06.085Z,1025.02
2017-02-14T13:10:16.807Z,1024.99
2017-02-14T13:11:26.726Z,1024.98
2017-02-14T13:12:37.678Z,1025
2017-02-14T13:13:47.852Z,1024.97
2017-02-14T13:14:58.160Z,1024.95
2017-02-14T13:16:08.466Z,1024.93
2017-02-14T13:17:18.400Z,1024.92
2017-02-14T13:18:28.696Z,1024.89
2017-02-14T13:19:38.499Z,1024.9
2017-02-14T13:20:49.194Z,1024.89
2017-02-14T13:21:59.501Z,1024.9
2017-02-14T13:23:09.835Z,1024.9
2017-02-14T13:24:19.724Z,1024.87
2017-02-14T13:25:30.338Z,1024.8
2017-02-14T13:26:40.648Z,1024.77
2017-02-14T13:27:50.915Z,1024.74
2017-02-14T13:29:00.851Z,1024.71
2017-02-14T13:30:11.514Z,1024.69
2017-02-14T13:31:22.147Z,1024.72
2017-02-14T13:32:32.489Z,1024.71
2017-02-14T13:33:43.174Z,1024.76
2017-02-14T13:34:53.483Z,1024.73
2017-02-14T13:36:03.395Z,1024.75
2017-02-14T13:37:14.304Z,1024.76
2017-02-14T13:38:24.587Z,1024.68
2017-02-14T13:39:34.925Z,1024.72
2017-02-14T13:40:44.806Z,1024.73
2017-02-14T13:41:55.086Z,1024.75
2017-02-14T13:43:06.033Z,1024.79
2017-02-14T13:44:16.332Z,1024.75
2017-02-14T13:45:27.045Z,1024.77
2017-02-14T13:46:37.361Z,1024.73
2017-02-14T13:47:47.653Z,1024.75
2017-02-14T13:48:58.063Z,1024.76
2017-02-14T13:50:08.740Z,1024.78
2017-02-14T13:51:19.428Z,1024.76
2017-02-14T13:52:29.730Z,1024.75
2017-02-14T13:53:39.654Z,1024.76
2017-02-14T13:54:50.235Z,1024.78
2017-02-14T13:56:00.581Z,1024.77
2017-02-14T13:57:10.885Z,1024.77
2017-02-14T13:58:21.205Z,1024.8
2017-02-14T13:59:31.918Z,1024.83
2017-02-14T14:00:42.553Z,1024.76
2017-02-14T14:01:53.277Z,1024.72
2017-02-14T14:03:03.560Z,1024.72
2017-02-14T14:04:13.851Z,1024.68
2017-02-14T14:05:23.397Z,1024.7
2017-02-14T14:06:33.979Z,1024.71
2017-02-14T14:07:44.266Z,1024.71
2017-02-14T14:08:54.153Z,1024.71
2017-02-14T14:10:04.447Z,1024.72
2017-02-14T14:11:14.736Z,1024.77
2017-02-14T14:12:24.633Z,1024.73
2017-02-14T14:13:34.564Z,1024.73
2017-02-14T14:14:45.281Z,1024.74
2017-02-14T14:15:56.037Z,1024.8
2017-02-14T14:17:06.767Z,1024.77